sensor_id;sensor_type;location;lat;lon;timestamp;P1;durP1;ratioP1;P2;durP2;ratioP2
72060;SDS011;59925;52.136;5.420;2023-03-23T00:01:15;6.27;;;2.80;;
72060;SDS011;59925;52.136;5.420;2023-03-23T00:03:46;5.10;;;2.58;;
72060;SDS011;59925;52.136;5.420;2023-03-23T00:06:13;5.70;;;2.70;;
72060;SDS011;59925;52.136;5.420;2023-03-23T00:08:43;4.63;;;2.70;;
72060;SDS011;59925;52.136;5.420;2023-03-23T00:11:17;7.38;;;3.05;;
72060;SDS011;59925;52.136;5.420;2023-03-23T00:13:45;6.73;;;2.70;;
72060;SDS011;59925;52.136;5.420;2023-03-23T00:16:13;4.18;;;2.88;;
72060;SDS011;59925;52.136;5.420;2023-03-23T00:18:46;7.43;;;2.88;;
72060;SDS011;59925;52.136;5.420;2023-03-23T00:21:13;6.35;;;2.97;;
72060;SDS011;59925;52.136;5.420;2023-03-23T00:23:38;3.67;;;2.50;;
72060;SDS011;59925;52.136;5.420;2023-03-23T00:26:04;4.78;;;2.47;;
72060;SDS011;59925;52.136;5.420;2023-03-23T00:28:31;7.20;;;2.67;;
72060;SDS011;59925;52.136;5.420;2023-03-23T00:30:57;6.87;;;2.70;;
72060;SDS011;59925;52.136;5.420;2023-03-23T00:33:25;7.32;;;2.95;;
72060;SDS011;59925;52.136;5.420;2023-03-23T00:35:52;7.95;;;2.47;;
72060;SDS011;59925;52.136;5.420;2023-03-23T00:38:19;6.45;;;2.50;;
72060;SDS011;59925;52.136;5.420;2023-03-23T00:40:48;6.53;;;2.37;;
72060;SDS011;59925;52.136;5.420;2023-03-23T00:43:15;8.10;;;2.10;;
72060;SDS011;59925;52.136;5.420;2023-03-23T00:45:42;4.25;;;2.58;;
72060;SDS011;59925;52.136;5.420;2023-03-23T00:48:21;5.90;;;2.17;;
72060;SDS011;59925;52.136;5.420;2023-03-23T00:50:47;6.40;;;2.22;;
72060;SDS011;59925;52.136;5.420;2023-03-23T00:53:13;6.20;;;2.37;;
72060;SDS011;59925;52.136;5.420;2023-03-23T00:55:40;4.53;;;2.35;;
72060;SDS011;59925;52.136;5.420;2023-03-23T00:58:07;3.88;;;2.22;;
72060;SDS011;59925;52.136;5.420;2023-03-23T01:00:33;4.22;;;2.10;;
72060;SDS011;59925;52.136;5.420;2023-03-23T01:02:58;4.03;;;2.20;;
72060;SDS011;59925;52.136;5.420;2023-03-23T01:05:23;5.37;;;2.00;;
72060;SDS011;59925;52.136;5.420;2023-03-23T01:07:49;3.87;;;2.13;;
72060;SDS011;59925;52.136;5.420;2023-03-23T01:10:14;3.53;;;1.83;;
72060;SDS011;59925;52.136;5.420;2023-03-23T01:12:42;3.93;;;1.70;;
72060;SDS011;59925;52.136;5.420;2023-03-23T01:15:17;5.25;;;2.00;;
72060;SDS011;59925;52.136;5.420;2023-03-23T01:17:43;5.07;;;1.92;;
72060;SDS011;59925;52.136;5.420;2023-03-23T01:20:10;5.53;;;2.20;;
72060;SDS011;59925;52.136;5.420;2023-03-23T01:22:37;5.05;;;2.03;;
72060;SDS011;59925;52.136;5.420;2023-03-23T01:25:03;3.47;;;1.70;;
72060;SDS011;59925;52.136;5.420;2023-03-23T01:27:30;3.38;;;1.58;;
72060;SDS011;59925;52.136;5.420;2023-03-23T01:29:55;4.37;;;1.70;;
72060;SDS011;59925;52.136;5.420;2023-03-23T01:32:21;5.60;;;2.10;;
72060;SDS011;59925;52.136;5.420;2023-03-23T01:34:46;6.20;;;1.87;;
72060;SDS011;59925;52.136;5.420;2023-03-23T01:37:11;4.23;;;1.70;;
72060;SDS011;59925;52.136;5.420;2023-03-23T01:39:37;3.20;;;1.60;;
72060;SDS011;59925;52.136;5.420;2023-03-23T01:42:03;3.33;;;1.87;;
72060;SDS011;59925;52.136;5.420;2023-03-23T01:46:54;3.23;;;1.43;;
72060;SDS011;59925;52.136;5.420;2023-03-23T01:49:25;4.45;;;1.90;;
72060;SDS011;59925;52.136;5.420;2023-03-23T01:52:08;4.53;;;1.70;;
72060;SDS011;59925;52.136;5.420;2023-03-23T01:54:42;2.75;;;1.50;;
72060;SDS011;59925;52.136;5.420;2023-03-23T01:57:11;3.83;;;1.50;;
72060;SDS011;59925;52.136;5.420;2023-03-23T01:59:42;2.60;;;1.80;;
72060;SDS011;59925;52.136;5.420;2023-03-23T02:02:10;5.40;;;1.40;;
72060;SDS011;59925;52.136;5.420;2023-03-23T02:04:37;5.28;;;2.33;;
72060;SDS011;59925;52.136;5.420;2023-03-23T02:07:04;3.00;;;1.67;;
72060;SDS011;59925;52.136;5.420;2023-03-23T02:09:29;4.23;;;1.73;;
72060;SDS011;59925;52.136;5.420;2023-03-23T02:11:55;2.33;;;1.30;;
72060;SDS011;59925;52.136;5.420;2023-03-23T02:14:22;5.53;;;2.20;;
72060;SDS011;59925;52.136;5.420;2023-03-23T02:17:04;3.92;;;1.75;;
72060;SDS011;59925;52.136;5.420;2023-03-23T02:34:50;4.65;;;2.20;;
72060;SDS011;59925;52.136;5.420;2023-03-23T02:37:24;4.43;;;2.10;;
72060;SDS011;59925;52.136;5.420;2023-03-23T02:40:10;4.30;;;1.98;;
72060;SDS011;59925;52.136;5.420;2023-03-23T02:42:42;5.75;;;2.20;;
72060;SDS011;59925;52.136;5.420;2023-03-23T02:45:11;4.20;;;2.08;;
72060;SDS011;59925;52.136;5.420;2023-03-23T02:47:39;4.40;;;2.25;;
72060;SDS011;59925;52.136;5.420;2023-03-23T02:50:07;4.90;;;2.17;;
72060;SDS011;59925;52.136;5.420;2023-03-23T02:52:36;4.65;;;2.08;;
72060;SDS011;59925;52.136;5.420;2023-03-23T02:55:05;2.72;;;1.77;;
72060;SDS011;59925;52.136;5.420;2023-03-23T02:57:33;3.75;;;2.10;;
72060;SDS011;59925;52.136;5.420;2023-03-23T03:00:00;3.88;;;2.10;;
72060;SDS011;59925;52.136;5.420;2023-03-23T03:02:29;4.03;;;2.10;;
72060;SDS011;59925;52.136;5.420;2023-03-23T03:11:13;4.38;;;2.58;;
72060;SDS011;59925;52.136;5.420;2023-03-23T03:13:55;5.35;;;2.15;;
72060;SDS011;59925;52.136;5.420;2023-03-23T03:21:58;3.60;;;1.90;;
72060;SDS011;59925;52.136;5.420;2023-03-23T03:24:25;3.08;;;1.58;;
72060;SDS011;59925;52.136;5.420;2023-03-23T03:26:54;4.53;;;1.95;;
72060;SDS011;59925;52.136;5.420;2023-03-23T03:29:29;4.15;;;1.40;;
72060;SDS011;59925;52.136;5.420;2023-03-23T03:31:59;3.72;;;1.58;;
72060;SDS011;59925;52.136;5.420;2023-03-23T03:34:29;4.63;;;1.70;;
72060;SDS011;59925;52.136;5.420;2023-03-23T03:36:57;4.53;;;1.50;;
72060;SDS011;59925;52.136;5.420;2023-03-23T03:39:23;6.35;;;1.73;;
72060;SDS011;59925;52.136;5.420;2023-03-23T03:41:50;4.50;;;1.48;;
72060;SDS011;59925;52.136;5.420;2023-03-23T03:44:15;4.90;;;1.43;;
72060;SDS011;59925;52.136;5.420;2023-03-23T03:46:41;3.03;;;1.20;;
72060;SDS011;59925;52.136;5.420;2023-03-23T03:49:07;3.67;;;1.50;;
72060;SDS011;59925;52.136;5.420;2023-03-23T03:51:35;4.00;;;1.20;;
72060;SDS011;59925;52.136;5.420;2023-03-23T03:54:01;4.53;;;1.50;;
72060;SDS011;59925;52.136;5.420;2023-03-23T03:56:26;4.33;;;1.20;;
72060;SDS011;59925;52.136;5.420;2023-03-23T03:58:52;3.13;;;1.20;;
72060;SDS011;59925;52.136;5.420;2023-03-23T04:01:19;2.80;;;1.00;;
72060;SDS011;59925;52.136;5.420;2023-03-23T04:03:49;4.38;;;1.25;;
72060;SDS011;59925;52.136;5.420;2023-03-23T04:06:15;5.28;;;1.35;;
72060;SDS011;59925;52.136;5.420;2023-03-23T04:08:41;3.42;;;1.40;;
72060;SDS011;59925;52.136;5.420;2023-03-23T04:11:08;5.30;;;1.15;;
72060;SDS011;59925;52.136;5.420;2023-03-23T04:13:35;6.37;;;1.30;;
72060;SDS011;59925;52.136;5.420;2023-03-23T04:16:01;3.95;;;1.00;;
72060;SDS011;59925;52.136;5.420;2023-03-23T04:18:27;3.78;;;1.15;;
72060;SDS011;59925;52.136;5.420;2023-03-23T04:20:53;4.47;;;1.13;;
72060;SDS011;59925;52.136;5.420;2023-03-23T04:23:19;3.35;;;1.02;;
72060;SDS011;59925;52.136;5.420;2023-03-23T04:25:47;4.95;;;1.15;;
72060;SDS011;59925;52.136;5.420;2023-03-23T04:28:14;5.53;;;1.37;;
72060;SDS011;59925;52.136;5.420;2023-03-23T04:30:41;2.47;;;1.10;;
72060;SDS011;59925;52.136;5.420;2023-03-23T04:33:08;5.18;;;0.98;;
72060;SDS011;59925;52.136;5.420;2023-03-23T04:35:34;2.80;;;1.10;;
72060;SDS011;59925;52.136;5.420;2023-03-23T04:37:59;5.33;;;1.10;;
72060;SDS011;59925;52.136;5.420;2023-03-23T04:40:24;4.23;;;1.00;;
72060;SDS011;59925;52.136;5.420;2023-03-23T04:42:50;7.03;;;1.00;;
72060;SDS011;59925;52.136;5.420;2023-03-23T04:45:18;5.43;;;0.82;;
72060;SDS011;59925;52.136;5.420;2023-03-23T04:47:47;5.78;;;1.10;;
72060;SDS011;59925;52.136;5.420;2023-03-23T04:50:18;4.85;;;0.90;;
72060;SDS011;59925;52.136;5.420;2023-03-23T04:52:46;3.55;;;0.82;;
72060;SDS011;59925;52.136;5.420;2023-03-23T04:55:12;3.27;;;0.60;;
72060;SDS011;59925;52.136;5.420;2023-03-23T04:57:38;6.90;;;0.93;;
72060;SDS011;59925;52.136;5.420;2023-03-23T05:00:05;5.10;;;0.98;;
72060;SDS011;59925;52.136;5.420;2023-03-23T05:02:37;7.72;;;1.08;;
72060;SDS011;59925;52.136;5.420;2023-03-23T05:05:05;6.38;;;0.90;;
72060;SDS011;59925;52.136;5.420;2023-03-23T05:07:31;5.97;;;0.80;;
72060;SDS011;59925;52.136;5.420;2023-03-23T05:09:57;5.85;;;0.85;;
72060;SDS011;59925;52.136;5.420;2023-03-23T05:12:22;4.70;;;0.63;;
72060;SDS011;59925;52.136;5.420;2023-03-23T05:14:48;3.17;;;0.83;;
72060;SDS011;59925;52.136;5.420;2023-03-23T05:17:13;8.00;;;1.33;;
72060;SDS011;59925;52.136;5.420;2023-03-23T05:19:42;4.90;;;1.13;;
72060;SDS011;59925;52.136;5.420;2023-03-23T05:22:09;4.47;;;0.63;;
72060;SDS011;59925;52.136;5.420;2023-03-23T05:24:34;8.07;;;1.47;;
72060;SDS011;59925;52.136;5.420;2023-03-23T05:27:00;4.05;;;0.52;;
72060;SDS011;59925;52.136;5.420;2023-03-23T05:29:26;2.97;;;0.60;;
72060;SDS011;59925;52.136;5.420;2023-03-23T05:31:51;4.27;;;0.90;;
72060;SDS011;59925;52.136;5.420;2023-03-23T05:34:18;8.38;;;0.68;;
72060;SDS011;59925;52.136;5.420;2023-03-23T05:36:44;8.07;;;0.93;;
72060;SDS011;59925;52.136;5.420;2023-03-23T05:39:10;4.78;;;0.90;;
72060;SDS011;59925;52.136;5.420;2023-03-23T05:41:36;11.45;;;1.38;;
72060;SDS011;59925;52.136;5.420;2023-03-23T05:44:02;5.27;;;0.90;;
72060;SDS011;59925;52.136;5.420;2023-03-23T05:46:28;5.93;;;1.20;;
72060;SDS011;59925;52.136;5.420;2023-03-23T05:48:53;10.63;;;1.10;;
72060;SDS011;59925;52.136;5.420;2023-03-23T05:51:19;10.13;;;1.27;;
72060;SDS011;59925;52.136;5.420;2023-03-23T05:53:45;11.13;;;1.45;;
72060;SDS011;59925;52.136;5.420;2023-03-23T05:56:10;8.87;;;1.30;;
72060;SDS011;59925;52.136;5.420;2023-03-23T05:58:36;6.53;;;1.30;;
72060;SDS011;59925;52.136;5.420;2023-03-23T06:01:05;7.80;;;1.30;;
72060;SDS011;59925;52.136;5.420;2023-03-23T06:03:31;10.80;;;1.25;;
72060;SDS011;59925;52.136;5.420;2023-03-23T06:05:57;4.90;;;0.80;;
72060;SDS011;59925;52.136;5.420;2023-03-23T06:08:23;8.55;;;1.77;;
72060;SDS011;59925;52.136;5.420;2023-03-23T06:10:49;4.47;;;0.90;;
72060;SDS011;59925;52.136;5.420;2023-03-23T06:13:14;4.73;;;1.20;;
72060;SDS011;59925;52.136;5.420;2023-03-23T06:15:40;7.05;;;0.98;;
72060;SDS011;59925;52.136;5.420;2023-03-23T06:18:05;10.10;;;1.10;;
72060;SDS011;59925;52.136;5.420;2023-03-23T06:20:31;3.97;;;1.08;;
72060;SDS011;59925;52.136;5.420;2023-03-23T06:22:58;4.22;;;1.00;;
72060;SDS011;59925;52.136;5.420;2023-03-23T06:25:23;5.70;;;0.80;;
72060;SDS011;59925;52.136;5.420;2023-03-23T06:27:49;6.13;;;1.05;;
72060;SDS011;59925;52.136;5.420;2023-03-23T06:30:16;6.55;;;0.90;;
72060;SDS011;59925;52.136;5.420;2023-03-23T06:32:42;4.97;;;0.90;;
72060;SDS011;59925;52.136;5.420;2023-03-23T06:35:11;5.50;;;1.20;;
72060;SDS011;59925;52.136;5.420;2023-03-23T06:37:37;9.77;;;1.58;;
72060;SDS011;59925;52.136;5.420;2023-03-23T06:40:03;6.93;;;1.70;;
72060;SDS011;59925;52.136;5.420;2023-03-23T06:42:31;7.00;;;1.70;;
72060;SDS011;59925;52.136;5.420;2023-03-23T06:44:57;9.95;;;1.50;;
72060;SDS011;59925;52.136;5.420;2023-03-23T06:47:25;10.23;;;1.55;;
72060;SDS011;59925;52.136;5.420;2023-03-23T06:49:52;9.48;;;1.38;;
72060;SDS011;59925;52.136;5.420;2023-03-23T06:52:17;7.17;;;1.70;;
72060;SDS011;59925;52.136;5.420;2023-03-23T06:54:43;7.27;;;1.53;;
72060;SDS011;59925;52.136;5.420;2023-03-23T06:57:08;6.45;;;1.13;;
72060;SDS011;59925;52.136;5.420;2023-03-23T06:59:34;6.77;;;1.33;;
72060;SDS011;59925;52.136;5.420;2023-03-23T07:01:59;10.57;;;1.37;;
72060;SDS011;59925;52.136;5.420;2023-03-23T07:04:25;9.18;;;2.08;;
72060;SDS011;59925;52.136;5.420;2023-03-23T07:06:50;10.73;;;1.73;;
72060;SDS011;59925;52.136;5.420;2023-03-23T07:09:16;4.87;;;1.40;;
72060;SDS011;59925;52.136;5.420;2023-03-23T07:11:41;8.07;;;1.60;;
72060;SDS011;59925;52.136;5.420;2023-03-23T07:14:07;5.68;;;1.30;;
72060;SDS011;59925;52.136;5.420;2023-03-23T07:16:32;12.17;;;1.50;;
72060;SDS011;59925;52.136;5.420;2023-03-23T07:18:58;7.73;;;1.43;;
72060;SDS011;59925;52.136;5.420;2023-03-23T07:21:24;6.30;;;2.10;;
72060;SDS011;59925;52.136;5.420;2023-03-23T07:23:50;9.27;;;2.10;;
72060;SDS011;59925;52.136;5.420;2023-03-23T07:26:15;6.53;;;1.47;;
72060;SDS011;59925;52.136;5.420;2023-03-23T07:28:41;6.55;;;1.42;;
72060;SDS011;59925;52.136;5.420;2023-03-23T07:31:07;7.03;;;1.33;;
72060;SDS011;59925;52.136;5.420;2023-03-23T07:33:35;8.45;;;1.50;;
72060;SDS011;59925;52.136;5.420;2023-03-23T07:36:01;5.93;;;1.27;;
72060;SDS011;59925;52.136;5.420;2023-03-23T07:38:27;8.07;;;1.40;;
72060;SDS011;59925;52.136;5.420;2023-03-23T07:40:53;5.78;;;1.02;;
72060;SDS011;59925;52.136;5.420;2023-03-23T07:43:19;5.03;;;1.43;;
72060;SDS011;59925;52.136;5.420;2023-03-23T07:45:46;6.03;;;1.03;;
72060;SDS011;59925;52.136;5.420;2023-03-23T07:48:11;5.95;;;0.95;;
72060;SDS011;59925;52.136;5.420;2023-03-23T07:50:37;8.50;;;1.00;;
72060;SDS011;59925;52.136;5.420;2023-03-23T07:53:03;6.45;;;1.15;;
72060;SDS011;59925;52.136;5.420;2023-03-23T07:55:28;7.57;;;1.13;;
72060;SDS011;59925;52.136;5.420;2023-03-23T07:57:54;6.97;;;0.90;;
72060;SDS011;59925;52.136;5.420;2023-03-23T08:00:20;4.07;;;1.20;;
72060;SDS011;59925;52.136;5.420;2023-03-23T08:02:49;6.22;;;1.20;;
72060;SDS011;59925;52.136;5.420;2023-03-23T08:05:16;8.93;;;1.10;;
72060;SDS011;59925;52.136;5.420;2023-03-23T08:07:43;5.65;;;1.50;;
72060;SDS011;59925;52.136;5.420;2023-03-23T08:10:10;4.63;;;1.23;;
72060;SDS011;59925;52.136;5.420;2023-03-23T08:12:37;6.82;;;1.13;;
72060;SDS011;59925;52.136;5.420;2023-03-23T08:15:04;5.57;;;1.42;;
72060;SDS011;59925;52.136;5.420;2023-03-23T08:17:31;4.63;;;1.30;;
72060;SDS011;59925;52.136;5.420;2023-03-23T08:19:57;7.22;;;1.48;;
72060;SDS011;59925;52.136;5.420;2023-03-23T08:22:23;5.63;;;1.37;;
72060;SDS011;59925;52.136;5.420;2023-03-23T08:24:49;5.95;;;0.90;;
72060;SDS011;59925;52.136;5.420;2023-03-23T08:27:15;6.03;;;1.03;;
72060;SDS011;59925;52.136;5.420;2023-03-23T08:29:40;5.13;;;1.27;;
72060;SDS011;59925;52.136;5.420;2023-03-23T08:32:06;5.18;;;1.10;;
72060;SDS011;59925;52.136;5.420;2023-03-23T08:34:31;5.37;;;1.17;;
72060;SDS011;59925;52.136;5.420;2023-03-23T08:36:57;6.57;;;0.95;;
72060;SDS011;59925;52.136;5.420;2023-03-23T08:39:23;6.83;;;1.10;;
72060;SDS011;59925;52.136;5.420;2023-03-23T08:41:50;9.10;;;1.42;;
72060;SDS011;59925;52.136;5.420;2023-03-23T08:44:15;5.67;;;1.43;;
72060;SDS011;59925;52.136;5.420;2023-03-23T08:46:41;3.37;;;1.10;;
72060;SDS011;59925;52.136;5.420;2023-03-23T08:49:06;7.93;;;1.30;;
72060;SDS011;59925;52.136;5.420;2023-03-23T08:51:32;6.57;;;1.33;;
72060;SDS011;59925;52.136;5.420;2023-03-23T08:53:57;6.43;;;1.53;;
72060;SDS011;59925;52.136;5.420;2023-03-23T08:56:23;6.70;;;1.10;;
72060;SDS011;59925;52.136;5.420;2023-03-23T08:58:49;6.63;;;1.40;;
72060;SDS011;59925;52.136;5.420;2023-03-23T09:01:15;6.85;;;1.45;;
72060;SDS011;59925;52.136;5.420;2023-03-23T09:03:41;4.07;;;0.80;;
72060;SDS011;59925;52.136;5.420;2023-03-23T09:06:07;4.43;;;0.95;;
72060;SDS011;59925;52.136;5.420;2023-03-23T09:08:34;6.75;;;1.05;;
72060;SDS011;59925;52.136;5.420;2023-03-23T09:11:07;5.47;;;1.10;;
72060;SDS011;59925;52.136;5.420;2023-03-23T09:13:35;5.45;;;1.13;;
72060;SDS011;59925;52.136;5.420;2023-03-23T09:16:02;7.85;;;1.55;;
72060;SDS011;59925;52.136;5.420;2023-03-23T09:18:29;8.18;;;1.77;;
72060;SDS011;59925;52.136;5.420;2023-03-23T09:20:54;8.53;;;1.27;;
72060;SDS011;59925;52.136;5.420;2023-03-23T09:23:20;5.77;;;1.17;;
72060;SDS011;59925;52.136;5.420;2023-03-23T09:25:45;5.80;;;0.93;;
72060;SDS011;59925;52.136;5.420;2023-03-23T09:28:12;7.10;;;1.00;;
72060;SDS011;59925;52.136;5.420;2023-03-23T09:30:38;7.63;;;1.53;;
72060;SDS011;59925;52.136;5.420;2023-03-23T09:33:05;8.02;;;1.27;;
72060;SDS011;59925;52.136;5.420;2023-03-23T09:35:33;7.78;;;1.30;;
72060;SDS011;59925;52.136;5.420;2023-03-23T09:38:00;7.32;;;1.00;;
72060;SDS011;59925;52.136;5.420;2023-03-23T09:40:39;5.25;;;1.30;;
72060;SDS011;59925;52.136;5.420;2023-03-23T09:43:18;6.47;;;1.13;;
72060;SDS011;59925;52.136;5.420;2023-03-23T09:46:13;5.28;;;1.15;;
72060;SDS011;59925;52.136;5.420;2023-03-23T09:48:55;6.95;;;1.30;;
72060;SDS011;59925;52.136;5.420;2023-03-23T09:51:41;6.45;;;1.40;;
72060;SDS011;59925;52.136;5.420;2023-03-23T09:54:24;4.05;;;1.02;;
72060;SDS011;59925;52.136;5.420;2023-03-23T09:56:52;8.63;;;1.57;;
72060;SDS011;59925;52.136;5.420;2023-03-23T09:59:24;12.02;;;1.30;;
72060;SDS011;59925;52.136;5.420;2023-03-23T10:01:53;8.63;;;1.25;;
72060;SDS011;59925;52.136;5.420;2023-03-23T10:04:39;6.72;;;1.40;;
72060;SDS011;59925;52.136;5.420;2023-03-23T10:09:47;7.07;;;1.00;;
72060;SDS011;59925;52.136;5.420;2023-03-23T10:12:19;6.45;;;1.20;;
72060;SDS011;59925;52.136;5.420;2023-03-23T10:20:13;6.65;;;1.08;;
72060;SDS011;59925;52.136;5.420;2023-03-23T10:22:58;8.20;;;1.25;;
72060;SDS011;59925;52.136;5.420;2023-03-23T10:25:31;6.53;;;1.00;;
72060;SDS011;59925;52.136;5.420;2023-03-23T10:28:13;7.88;;;0.90;;
72060;SDS011;59925;52.136;5.420;2023-03-23T10:30:45;7.57;;;1.42;;
72060;SDS011;59925;52.136;5.420;2023-03-23T10:33:17;5.97;;;1.17;;
72060;SDS011;59925;52.136;5.420;2023-03-23T10:38:29;5.07;;;1.00;;
72060;SDS011;59925;52.136;5.420;2023-03-23T10:41:06;7.30;;;1.45;;
72060;SDS011;59925;52.136;5.420;2023-03-23T10:43:37;5.63;;;1.15;;
72060;SDS011;59925;52.136;5.420;2023-03-23T10:46:14;8.13;;;1.35;;
72060;SDS011;59925;52.136;5.420;2023-03-23T10:48:45;7.70;;;1.40;;
72060;SDS011;59925;52.136;5.420;2023-03-23T10:51:13;8.20;;;1.20;;
72060;SDS011;59925;52.136;5.420;2023-03-23T10:53:45;7.05;;;1.00;;
72060;SDS011;59925;52.136;5.420;2023-03-23T10:56:26;7.30;;;1.13;;
72060;SDS011;59925;52.136;5.420;2023-03-23T10:58:54;7.50;;;1.08;;
72060;SDS011;59925;52.136;5.420;2023-03-23T11:01:28;6.00;;;1.17;;
72060;SDS011;59925;52.136;5.420;2023-03-23T11:03:56;8.27;;;1.40;;
72060;SDS011;59925;52.136;5.420;2023-03-23T11:06:27;8.40;;;1.40;;
72060;SDS011;59925;52.136;5.420;2023-03-23T11:08:58;11.10;;;1.43;;
72060;SDS011;59925;52.136;5.420;2023-03-23T11:11:32;10.13;;;1.02;;
72060;SDS011;59925;52.136;5.420;2023-03-23T11:16:59;5.78;;;0.77;;
72060;SDS011;59925;52.136;5.420;2023-03-23T11:19:34;9.57;;;1.30;;
72060;SDS011;59925;52.136;5.420;2023-03-23T11:24:34;9.52;;;1.63;;
72060;SDS011;59925;52.136;5.420;2023-03-23T11:27:10;5.53;;;1.17;;
72060;SDS011;59925;52.136;5.420;2023-03-23T11:29:43;6.68;;;1.50;;
72060;SDS011;59925;52.136;5.420;2023-03-23T11:32:24;5.50;;;1.10;;
72060;SDS011;59925;52.136;5.420;2023-03-23T11:34:59;5.13;;;1.00;;
72060;SDS011;59925;52.136;5.420;2023-03-23T11:37:32;4.47;;;1.02;;
72060;SDS011;59925;52.136;5.420;2023-03-23T11:45:13;4.72;;;1.00;;
72060;SDS011;59925;52.136;5.420;2023-03-23T11:50:55;8.88;;;1.27;;
72060;SDS011;59925;52.136;5.420;2023-03-23T11:56:23;5.95;;;1.15;;
72060;SDS011;59925;52.136;5.420;2023-03-23T11:58:50;7.55;;;1.17;;
72060;SDS011;59925;52.136;5.420;2023-03-23T12:01:31;4.60;;;1.30;;
72060;SDS011;59925;52.136;5.420;2023-03-23T12:12:14;10.02;;;1.33;;
72060;SDS011;59925;52.136;5.420;2023-03-23T12:14:58;8.38;;;1.33;;
72060;SDS011;59925;52.136;5.420;2023-03-23T12:21:09;12.95;;;1.45;;
72060;SDS011;59925;52.136;5.420;2023-03-23T12:26:20;7.93;;;1.00;;
72060;SDS011;59925;52.136;5.420;2023-03-23T12:28:52;8.95;;;0.85;;
72060;SDS011;59925;52.136;5.420;2023-03-23T12:34:19;6.97;;;0.88;;
72060;SDS011;59925;52.136;5.420;2023-03-23T12:37:06;6.07;;;1.33;;
72060;SDS011;59925;52.136;5.420;2023-03-23T12:48:11;5.35;;;1.00;;
72060;SDS011;59925;52.136;5.420;2023-03-23T12:51:00;7.10;;;0.70;;
72060;SDS011;59925;52.136;5.420;2023-03-23T12:53:34;7.97;;;0.98;;
72060;SDS011;59925;52.136;5.420;2023-03-23T12:56:10;5.72;;;0.82;;
72060;SDS011;59925;52.136;5.420;2023-03-23T12:58:42;9.90;;;1.00;;
72060;SDS011;59925;52.136;5.420;2023-03-23T13:01:17;4.82;;;0.60;;
72060;SDS011;59925;52.136;5.420;2023-03-23T13:04:30;8.32;;;0.93;;
72060;SDS011;59925;52.136;5.420;2023-03-23T13:06:44;6.75;;;0.75;;
72060;SDS011;59925;52.136;5.420;2023-03-23T13:09:23;4.63;;;0.80;;
72060;SDS011;59925;52.136;5.420;2023-03-23T13:12:01;9.53;;;1.33;;
72060;SDS011;59925;52.136;5.420;2023-03-23T13:23:23;4.90;;;0.70;;
72060;SDS011;59925;52.136;5.420;2023-03-23T13:28:28;4.00;;;0.80;;
72060;SDS011;59925;52.136;5.420;2023-03-23T13:31:01;7.88;;;0.90;;
72060;SDS011;59925;52.136;5.420;2023-03-23T13:33:30;4.72;;;0.80;;
72060;SDS011;59925;52.136;5.420;2023-03-23T13:36:02;5.25;;;1.00;;
72060;SDS011;59925;52.136;5.420;2023-03-23T13:38:44;7.73;;;0.90;;
72060;SDS011;59925;52.136;5.420;2023-03-23T13:41:13;5.00;;;1.15;;
72060;SDS011;59925;52.136;5.420;2023-03-23T13:43:41;5.78;;;0.90;;
72060;SDS011;59925;52.136;5.420;2023-03-23T13:46:09;5.70;;;0.82;;
72060;SDS011;59925;52.136;5.420;2023-03-23T13:48:41;5.78;;;1.10;;
72060;SDS011;59925;52.136;5.420;2023-03-23T13:51:23;6.83;;;0.93;;
72060;SDS011;59925;52.136;5.420;2023-03-23T13:54:05;7.63;;;1.20;;
72060;SDS011;59925;52.136;5.420;2023-03-23T13:56:47;6.70;;;0.98;;
72060;SDS011;59925;52.136;5.420;2023-03-23T14:01:51;4.10;;;0.93;;
72060;SDS011;59925;52.136;5.420;2023-03-23T14:04:18;4.23;;;0.90;;
72060;SDS011;59925;52.136;5.420;2023-03-23T14:06:45;5.80;;;1.10;;
72060;SDS011;59925;52.136;5.420;2023-03-23T14:09:20;6.55;;;1.00;;
72060;SDS011;59925;52.136;5.420;2023-03-23T14:11:57;4.28;;;0.70;;
72060;SDS011;59925;52.136;5.420;2023-03-23T14:14:31;3.63;;;0.77;;
72060;SDS011;59925;52.136;5.420;2023-03-23T14:17:08;4.67;;;1.17;;
72060;SDS011;59925;52.136;5.420;2023-03-23T14:19:40;3.67;;;0.80;;
72060;SDS011;59925;52.136;5.420;2023-03-23T14:22:27;4.97;;;1.00;;
72060;SDS011;59925;52.136;5.420;2023-03-23T14:25:01;7.22;;;1.00;;
72060;SDS011;59925;52.136;5.420;2023-03-23T14:27:36;6.45;;;1.30;;
72060;SDS011;59925;52.136;5.420;2023-03-23T14:30:06;5.00;;;0.90;;
72060;SDS011;59925;52.136;5.420;2023-03-23T14:32:33;5.32;;;1.08;;
72060;SDS011;59925;52.136;5.420;2023-03-23T14:34:59;4.37;;;1.07;;
72060;SDS011;59925;52.136;5.420;2023-03-23T14:37:38;5.50;;;0.90;;
72060;SDS011;59925;52.136;5.420;2023-03-23T14:40:03;7.47;;;1.00;;
72060;SDS011;59925;52.136;5.420;2023-03-23T14:42:34;4.63;;;1.00;;
72060;SDS011;59925;52.136;5.420;2023-03-23T14:45:01;4.90;;;1.02;;
72060;SDS011;59925;52.136;5.420;2023-03-23T14:47:34;6.88;;;1.13;;
72060;SDS011;59925;52.136;5.420;2023-03-23T14:50:04;4.93;;;0.90;;
72060;SDS011;59925;52.136;5.420;2023-03-23T14:52:35;8.00;;;1.10;;
72060;SDS011;59925;52.136;5.420;2023-03-23T14:55:18;6.00;;;0.80;;
72060;SDS011;59925;52.136;5.420;2023-03-23T14:57:46;6.75;;;2.05;;
72060;SDS011;59925;52.136;5.420;2023-03-23T15:00:16;6.22;;;0.90;;
72060;SDS011;59925;52.136;5.420;2023-03-23T15:02:51;7.10;;;0.83;;
72060;SDS011;59925;52.136;5.420;2023-03-23T15:05:21;7.57;;;1.00;;
72060;SDS011;59925;52.136;5.420;2023-03-23T15:07:53;6.43;;;1.05;;
72060;SDS011;59925;52.136;5.420;2023-03-23T15:10:22;7.28;;;1.10;;
72060;SDS011;59925;52.136;5.420;2023-03-23T15:12:49;5.32;;;1.00;;
72060;SDS011;59925;52.136;5.420;2023-03-23T15:15:26;6.30;;;1.37;;
72060;SDS011;59925;52.136;5.420;2023-03-23T15:17:54;4.05;;;0.90;;
72060;SDS011;59925;52.136;5.420;2023-03-23T15:20:25;5.50;;;1.02;;
72060;SDS011;59925;52.136;5.420;2023-03-23T15:22:50;7.18;;;1.02;;
72060;SDS011;59925;52.136;5.420;2023-03-23T15:25:18;4.82;;;1.10;;
72060;SDS011;59925;52.136;5.420;2023-03-23T15:30:52;7.50;;;1.05;;
72060;SDS011;59925;52.136;5.420;2023-03-23T15:33:19;7.45;;;0.93;;
72060;SDS011;59925;52.136;5.420;2023-03-23T15:35:52;5.18;;;0.70;;
72060;SDS011;59925;52.136;5.420;2023-03-23T15:40:56;5.70;;;1.00;;
72060;SDS011;59925;52.136;5.420;2023-03-23T15:43:27;9.77;;;1.05;;
72060;SDS011;59925;52.136;5.420;2023-03-23T15:45:57;8.13;;;1.05;;
72060;SDS011;59925;52.136;5.420;2023-03-23T15:48:32;4.25;;;0.70;;
72060;SDS011;59925;52.136;5.420;2023-03-23T15:51:10;5.93;;;1.13;;
72060;SDS011;59925;52.136;5.420;2023-03-23T15:53:37;5.03;;;0.87;;
72060;SDS011;59925;52.136;5.420;2023-03-23T15:56:05;6.15;;;1.10;;
72060;SDS011;59925;52.136;5.420;2023-03-23T15:58:32;4.13;;;0.93;;
72060;SDS011;59925;52.136;5.420;2023-03-23T16:01:02;5.00;;;1.00;;
72060;SDS011;59925;52.136;5.420;2023-03-23T16:03:36;7.30;;;1.17;;
72060;SDS011;59925;52.136;5.420;2023-03-23T16:06:08;6.50;;;1.00;;
72060;SDS011;59925;52.136;5.420;2023-03-23T16:08:49;8.57;;;1.30;;
72060;SDS011;59925;52.136;5.420;2023-03-23T16:11:20;5.60;;;1.10;;
72060;SDS011;59925;52.136;5.420;2023-03-23T16:13:47;8.05;;;1.00;;
72060;SDS011;59925;52.136;5.420;2023-03-23T16:16:15;5.65;;;1.20;;
72060;SDS011;59925;52.136;5.420;2023-03-23T16:18:46;8.03;;;1.17;;
72060;SDS011;59925;52.136;5.420;2023-03-23T16:21:12;9.45;;;1.90;;
72060;SDS011;59925;52.136;5.420;2023-03-23T16:23:38;7.03;;;1.40;;
72060;SDS011;59925;52.136;5.420;2023-03-23T16:26:06;5.40;;;0.95;;
72060;SDS011;59925;52.136;5.420;2023-03-23T16:28:32;6.95;;;1.20;;
72060;SDS011;59925;52.136;5.420;2023-03-23T16:30:59;11.03;;;1.40;;
72060;SDS011;59925;52.136;5.420;2023-03-23T16:33:26;5.00;;;0.82;;
72060;SDS011;59925;52.136;5.420;2023-03-23T16:35:52;6.10;;;1.00;;
72060;SDS011;59925;52.136;5.420;2023-03-23T16:38:19;6.80;;;1.20;;
72060;SDS011;59925;52.136;5.420;2023-03-23T16:40:45;8.80;;;1.30;;
72060;SDS011;59925;52.136;5.420;2023-03-23T16:43:12;9.47;;;1.73;;